createdAt,value
2019-05-20T00:00:24.704Z,98919.84
2019-05-20T00:02:51.947Z,98918.78
2019-05-20T00:05:19.226Z,98916.78
2019-05-20T00:07:46.455Z,98917.09
2019-05-20T00:10:13.850Z,98914.42
2019-05-20T00:12:41.168Z,98918.53
2019-05-20T00:15:08.677Z,98918.22
2019-05-20T00:17:36.145Z,98911.43
2019-05-20T00:20:04.179Z,98917.44
2019-05-20T00:22:31.459Z,98915.28
2019-05-20T00:24:58.903Z,98913.55
2019-05-20T00:27:26.563Z,98905.23
2019-05-20T00:29:54.016Z,98924.70
2019-05-20T00:32:21.537Z,98927.25
2019-05-20T00:34:48.970Z,98929.72
2019-05-20T00:37:16.395Z,98924.77
2019-05-20T00:39:43.653Z,98927.35
2019-05-20T00:42:10.913Z,98928.61
2019-05-20T00:44:38.723Z,98921.80
2019-05-20T00:47:06.015Z,98909.38
2019-05-20T00:49:33.430Z,98916.12
2019-05-20T00:52:00.721Z,98906.80
2019-05-20T00:54:28.082Z,98920.95
2019-05-20T00:56:55.465Z,98921.34
2019-05-20T00:59:22.761Z,98917.76
2019-05-20T01:01:50.035Z,98923.39
2019-05-20T01:04:18.388Z,98930.45
2019-05-20T01:06:45.724Z,98935.17
2019-05-20T01:09:12.986Z,98932.39
2019-05-20T01:11:40.599Z,98923.06
2019-05-20T01:14:07.903Z,98921.18
2019-05-20T01:16:35.512Z,98917.66
2019-05-20T01:19:02.846Z,98922.98
2019-05-20T01:21:30.266Z,98920.84
2019-05-20T01:23:58.703Z,98926.37
2019-05-20T01:26:26.191Z,98929.03
2019-05-20T01:28:53.619Z,98932.44
2019-05-20T01:31:20.958Z,98931.61
2019-05-20T01:33:48.294Z,98927.71
2019-05-20T01:36:15.679Z,98928.64
2019-05-20T01:38:43.069Z,98926.80
2019-05-20T01:41:10.492Z,98931.49
2019-05-20T01:43:37.847Z,98932.63
2019-05-20T01:46:05.196Z,98933.05
2019-05-20T01:48:32.564Z,98935.61
2019-05-20T01:50:59.934Z,98937.36
2019-05-20T01:53:27.205Z,98938.49
2019-05-20T01:55:54.598Z,98943.41
2019-05-20T01:58:21.972Z,98946.07
2019-05-20T02:00:49.240Z,98940.04
2019-05-20T02:03:30.431Z,98939.00
2019-05-20T02:05:45.795Z,98918.42
2019-05-20T02:08:13.218Z,98945.47
2019-05-20T02:10:40.565Z,98951.41
2019-05-20T02:13:07.831Z,98938.39
2019-05-20T02:15:54.681Z,98943.09
2019-05-20T02:18:21.990Z,98949.05
2019-05-20T02:20:49.517Z,98945.14
2019-05-20T02:23:16.867Z,98940.95
2019-05-20T02:25:46.677Z,98933.07
2019-05-20T02:28:14.246Z,98922.92
2019-05-20T02:30:41.494Z,98918.13
2019-05-20T02:33:09.437Z,98926.42
2019-05-20T02:35:36.817Z,98925.08
2019-05-20T02:38:04.184Z,98919.13
2019-05-20T02:40:32.547Z,98918.94
2019-05-20T02:42:59.862Z,98907.89
2019-05-20T02:45:27.128Z,98906.46
2019-05-20T02:47:54.424Z,98920.05
2019-05-20T02:50:21.676Z,98918.31
2019-05-20T02:52:48.984Z,98920.89
2019-05-20T02:55:16.264Z,98921.68
2019-05-20T02:57:43.676Z,98917.19
2019-05-20T03:00:11.086Z,98923.62
2019-05-20T03:02:38.818Z,98925.13
2019-05-20T03:05:06.330Z,98935.08
2019-05-20T03:07:33.558Z,98939.06
2019-05-20T03:10:00.894Z,98938.30
2019-05-20T03:12:29.536Z,98902.58
2019-05-20T03:14:56.835Z,98933.89
2019-05-20T03:17:24.186Z,98939.55
2019-05-20T03:19:51.466Z,98931.39
2019-05-20T03:22:18.715Z,98937.33
2019-05-20T03:24:45.932Z,98940.09
2019-05-20T03:27:13.226Z,98947.16
2019-05-20T03:29:40.461Z,98955.77
2019-05-20T03:32:07.797Z,98953.44
2019-05-20T03:34:50.829Z,98963.67
2019-05-20T03:37:04.287Z,98968.07
2019-05-20T03:39:31.673Z,98970.64
2019-05-20T03:41:58.938Z,98967.16
2019-05-20T03:44:26.235Z,98966.97
2019-05-20T03:46:54.624Z,98960.18
2019-05-20T03:49:21.962Z,98964.17
2019-05-20T03:51:52.365Z,98964.68
2019-05-20T03:54:18.417Z,98954.94
2019-05-20T03:56:46.664Z,98949.96
2019-05-20T03:59:13.927Z,98951.17
2019-05-20T04:01:41.193Z,98957.42
2019-05-20T04:04:08.480Z,98956.69
2019-05-20T04:06:35.738Z,98960.45
2019-05-20T04:09:04.306Z,98959.42
2019-05-20T04:11:31.674Z,98966.69
2019-05-20T04:13:58.931Z,98963.87
2019-05-20T04:16:26.199Z,98963.86
2019-05-20T04:18:54.408Z,98954.25
2019-05-20T04:21:21.821Z,98949.34
2019-05-20T04:23:49.177Z,98948.09
2019-05-20T04:26:16.552Z,98946.86
2019-05-20T04:28:43.830Z,98945.70
2019-05-20T04:31:11.119Z,98950.52
2019-05-20T04:33:38.462Z,98956.52
2019-05-20T04:36:05.884Z,98957.23
2019-05-20T04:38:33.111Z,98958.73
2019-05-20T04:41:00.430Z,98958.17
2019-05-20T04:43:27.694Z,98957.94
2019-05-20T04:45:55.171Z,98958.38
2019-05-20T04:48:22.456Z,98958.22
2019-05-20T04:50:49.736Z,98956.94
2019-05-20T04:53:17.144Z,98960.12
2019-05-20T04:55:44.931Z,98962.08
2019-05-20T04:58:12.768Z,98960.87
2019-05-20T05:01:10.595Z,98963.62
2019-05-20T05:03:39.423Z,98958.70
2019-05-20T05:06:06.937Z,98960.73
2019-05-20T05:08:34.316Z,98953.61
2019-05-20T05:11:01.713Z,98954.00
2019-05-20T05:13:29.169Z,98954.97
2019-05-20T05:15:56.586Z,98963.30
2019-05-20T05:18:23.860Z,98960.44
2019-05-20T05:20:51.203Z,98967.09
2019-05-20T05:23:18.600Z,98976.33
2019-05-20T05:25:45.848Z,98981.09
2019-05-20T05:28:13.094Z,98978.34
2019-05-20T05:30:40.368Z,98985.60
2019-05-20T05:33:07.750Z,98984.30
2019-05-20T05:35:35.076Z,98984.95
2019-05-20T05:38:03.100Z,98991.02
2019-05-20T05:40:31.188Z,98983.20
2019-05-20T05:42:58.558Z,98983.98
2019-05-20T05:45:29.984Z,98986.34
2019-05-20T05:47:57.340Z,98985.69
2019-05-20T05:50:24.576Z,98984.68
2019-05-20T05:52:51.905Z,98987.51
2019-05-20T05:55:19.201Z,98988.98
2019-05-20T05:57:46.488Z,98995.21
2019-05-20T06:00:13.809Z,98987.33
2019-05-20T06:02:41.078Z,98986.77
2019-05-20T06:05:08.532Z,98989.75
2019-05-20T06:07:35.857Z,98989.27
2019-05-20T06:10:03.436Z,98953.59
2019-05-20T06:12:30.814Z,98980.77
2019-05-20T06:14:58.149Z,98981.71
2019-05-20T06:17:25.453Z,98986.38
2019-05-20T06:19:52.769Z,98988.80
2019-05-20T06:22:20.039Z,98989.41
2019-05-20T06:24:47.450Z,98999.41
2019-05-20T06:27:14.792Z,98998.67
2019-05-20T06:29:42.235Z,98997.48
2019-05-20T06:32:09.682Z,99007.41
2019-05-20T06:34:36.998Z,99011.80
2019-05-20T06:37:07.040Z,99004.61
2019-05-20T06:39:34.847Z,99004.70
2019-05-20T06:42:02.172Z,99011.96
2019-05-20T06:44:29.520Z,99036.07
2019-05-20T06:46:56.782Z,99029.41
2019-05-20T06:49:24.066Z,99023.21
2019-05-20T06:51:51.419Z,99021.97
2019-05-20T06:54:18.834Z,99017.69
2019-05-20T06:56:46.649Z,99016.65
2019-05-20T06:59:14.153Z,99015.41
2019-05-20T07:01:41.725Z,99013.38
2019-05-20T07:04:09.146Z,99018.47
2019-05-20T07:06:46.675Z,99019.54
2019-05-20T07:09:05.777Z,99017.09
2019-05-20T07:11:33.008Z,99027.98
2019-05-20T07:14:00.420Z,99030.17
2019-05-20T07:16:27.758Z,99031.76
2019-05-20T07:18:55.179Z,99024.25
2019-05-20T07:21:22.619Z,99029.35
2019-05-20T07:23:52.413Z,99026.86
2019-05-20T07:26:20.322Z,99028.66
2019-05-20T07:28:47.681Z,99034.56
2019-05-20T07:31:15.071Z,99033.53
2019-05-20T07:33:42.484Z,99031.89
2019-05-20T07:36:10.211Z,99024.27
2019-05-20T07:38:37.656Z,99036.68
2019-05-20T07:41:05.131Z,99037.97
2019-05-20T07:43:32.535Z,99033.58
2019-05-20T07:46:01.004Z,99028.95
2019-05-20T07:48:28.659Z,99035.47
2019-05-20T07:50:56.383Z,99034.40
2019-05-20T07:53:24.020Z,99030.91
2019-05-20T07:56:03.238Z,99029.86
2019-05-20T07:58:33.719Z,99032.22
2019-05-20T08:01:01.367Z,99032.12
2019-05-20T08:03:31.731Z,99038.44
2019-05-20T08:05:59.010Z,99033.96
2019-05-20T08:08:26.396Z,99040.11
2019-05-20T08:10:53.662Z,99046.87
2019-05-20T08:13:21.034Z,99049.38
2019-05-20T08:15:48.284Z,99046.80
2019-05-20T08:18:15.910Z,99045.16
2019-05-20T08:20:44.779Z,99049.39
2019-05-20T08:23:12.072Z,99052.05
2019-05-20T08:25:39.603Z,99047.09
2019-05-20T08:28:07.017Z,99057.91
2019-05-20T08:30:35.267Z,99058.61
2019-05-20T08:33:02.715Z,99060.53
2019-05-20T08:35:30.048Z,99062.91
2019-05-20T08:37:57.389Z,99067.34
2019-05-20T08:40:24.697Z,99065.34
2019-05-20T08:42:52.110Z,99071.77
2019-05-20T08:45:19.417Z,99068.73
2019-05-20T08:47:46.714Z,99042.09
2019-05-20T08:50:16.356Z,99067.89
2019-05-20T08:52:44.534Z,99067.05
2019-05-20T08:55:12.080Z,99078.02
2019-05-20T08:57:39.424Z,99072.24
2019-05-20T09:00:07.414Z,99068.05
2019-05-20T09:02:34.783Z,99076.80
2019-05-20T09:05:03.326Z,99072.94
2019-05-20T09:07:30.975Z,99068.34
2019-05-20T09:09:58.324Z,99068.12
2019-05-20T09:12:25.728Z,99063.14
2019-05-20T09:14:52.974Z,99064.74
2019-05-20T09:17:20.214Z,99068.60
2019-05-20T09:19:47.622Z,99067.69
2019-05-20T09:22:15.118Z,99068.73
2019-05-20T09:24:42.707Z,98961.30
2019-05-20T09:27:10.289Z,99061.92
2019-05-20T09:29:38.202Z,99065.56
2019-05-20T09:32:05.759Z,99066.89
2019-05-20T09:34:33.052Z,99070.20
2019-05-20T09:37:00.560Z,99066.55
2019-05-20T09:39:27.893Z,99068.70
2019-05-20T09:41:55.341Z,99068.80
2019-05-20T09:44:22.977Z,99073.50
2019-05-20T09:46:50.305Z,99072.88
2019-05-20T09:49:17.739Z,99080.69
2019-05-20T09:51:45.159Z,99080.57
2019-05-20T09:54:12.566Z,99084.72
2019-05-20T09:56:39.888Z,99077.55
2019-05-20T09:59:07.163Z,99070.92
2019-05-20T10:01:34.518Z,99072.53
2019-05-20T10:04:01.888Z,99079.16
2019-05-20T10:06:29.195Z,99081.97
2019-05-20T10:08:56.510Z,99082.28
2019-05-20T10:11:23.968Z,99084.52
2019-05-20T10:13:51.219Z,99084.80
2019-05-20T10:16:18.497Z,99077.05
2019-05-20T10:18:45.868Z,99075.41
2019-05-20T10:21:13.184Z,99076.56
2019-05-20T10:23:40.447Z,99072.19
2019-05-20T10:26:07.784Z,99076.69
2019-05-20T10:28:35.067Z,99058.52
2019-05-20T10:31:02.339Z,99067.78
2019-05-20T10:33:30.704Z,99076.91
2019-05-20T10:35:59.155Z,99073.15
2019-05-20T10:38:26.800Z,99070.66
2019-05-20T10:40:55.427Z,99071.52
2019-05-20T10:43:22.775Z,99068.30
2019-05-20T10:45:50.045Z,99072.38
2019-05-20T10:48:17.290Z,99074.82
2019-05-20T10:50:44.583Z,99076.67
2019-05-20T10:53:12.946Z,99083.05
2019-05-20T10:55:40.316Z,99079.42
2019-05-20T10:58:07.817Z,99086.64
2019-05-20T11:00:36.177Z,99083.47
2019-05-20T11:03:03.648Z,99090.23
2019-05-20T11:05:31.014Z,99091.33
2019-05-20T11:07:58.515Z,99089.94
2019-05-20T11:10:25.752Z,99089.91
2019-05-20T11:12:53.010Z,99089.72
2019-05-20T11:15:20.267Z,99088.56
2019-05-20T11:17:47.661Z,99090.73
2019-05-20T11:20:15.169Z,99083.43
2019-05-20T11:22:42.468Z,99084.26
2019-05-20T11:25:10.133Z,99085.30
2019-05-20T11:27:37.532Z,99079.67
2019-05-20T11:30:05.583Z,99075.23
2019-05-20T11:32:32.873Z,99069.77
2019-05-20T11:35:00.340Z,99069.54
2019-05-20T11:37:27.611Z,99070.36
2019-05-20T11:39:54.905Z,99069.89
2019-05-20T11:42:22.156Z,99066.08
2019-05-20T11:44:49.481Z,99061.20
2019-05-20T11:47:16.726Z,99059.50
2019-05-20T11:49:45.118Z,99059.84
2019-05-20T11:52:12.365Z,99062.00
2019-05-20T11:54:39.671Z,99059.71
2019-05-20T11:57:06.963Z,99057.05
2019-05-20T11:59:34.408Z,99056.00
2019-05-20T12:02:04.007Z,99062.51
2019-05-20T12:04:30.950Z,99053.88
2019-05-20T12:06:58.261Z,99055.83
2019-05-20T12:11:52.446Z,99052.30
2019-05-20T12:14:19.858Z,99047.59
2019-05-20T12:16:47.169Z,99032.06
2019-05-20T12:19:14.400Z,99020.03
2019-05-20T12:21:41.753Z,99040.02
2019-05-20T12:24:08.943Z,99045.02
2019-05-20T12:26:37.320Z,99042.28
2019-05-20T12:29:04.580Z,99043.90
2019-05-20T12:31:31.828Z,99036.83
2019-05-20T12:33:59.070Z,99045.84
2019-05-20T12:36:26.324Z,99042.23
2019-05-20T12:38:53.675Z,99036.95
2019-05-20T12:41:21.000Z,99034.94
2019-05-20T12:44:08.947Z,99033.61
2019-05-20T12:46:17.579Z,99029.23
2019-05-20T12:48:45.042Z,99030.57
2019-05-20T12:51:14.530Z,99030.49
2019-05-20T12:53:41.566Z,99029.40
2019-05-20T12:56:09.186Z,99025.92
2019-05-20T12:58:36.932Z,99027.08
2019-05-20T13:01:04.428Z,99020.94
2019-05-20T13:03:31.884Z,99027.41
2019-05-20T13:05:59.348Z,99026.59
2019-05-20T13:08:26.627Z,99027.39
2019-05-20T13:10:53.953Z,99024.72
2019-05-20T13:13:21.284Z,99018.41
2019-05-20T13:15:48.616Z,99018.14
2019-05-20T13:18:16.886Z,99020.59
2019-05-20T13:20:44.145Z,99019.42
2019-05-20T13:23:13.838Z,99017.81
2019-05-20T13:25:40.736Z,99018.13
2019-05-20T13:28:08.001Z,99014.95
2019-05-20T13:30:35.283Z,99013.35
2019-05-20T13:33:02.553Z,99015.17
2019-05-20T13:35:29.826Z,99012.88
2019-05-20T13:37:57.175Z,99014.48
2019-05-20T13:40:24.567Z,99009.98
2019-05-20T13:42:51.932Z,99010.84
2019-05-20T13:45:19.341Z,99000.55
2019-05-20T13:47:46.844Z,99002.03
2019-05-20T13:50:14.305Z,99001.75
2019-05-20T13:52:41.534Z,98993.74
2019-05-20T13:55:08.831Z,98990.94
2019-05-20T13:57:36.147Z,98984.57
2019-05-20T14:00:03.577Z,98986.30
2019-05-20T14:02:30.900Z,98980.66
2019-05-20T14:04:58.191Z,98980.11
2019-05-20T14:07:25.486Z,98975.59
2019-05-20T14:09:52.737Z,98982.55
2019-05-20T14:12:21.035Z,98971.13
2019-05-20T14:14:48.347Z,98955.56
2019-05-20T14:17:15.628Z,98974.44
2019-05-20T14:19:42.860Z,98966.27
2019-05-20T14:22:10.114Z,98968.22
2019-05-20T14:24:37.379Z,98962.47
2019-05-20T14:27:04.744Z,98964.41
2019-05-20T14:29:31.991Z,98972.42
2019-05-20T14:31:59.334Z,98941.59
2019-05-20T14:34:26.607Z,98970.56
2019-05-20T14:36:54.009Z,98964.63
2019-05-20T14:39:21.343Z,98948.63
2019-05-20T14:41:48.787Z,98947.56
2019-05-20T14:44:16.069Z,98938.64
2019-05-20T14:46:43.335Z,98948.34
2019-05-20T14:49:10.584Z,98942.67
2019-05-20T14:51:37.875Z,98949.67
2019-05-20T14:54:05.159Z,98946.96
2019-05-20T14:56:32.422Z,98943.92
2019-05-20T14:58:59.647Z,98937.28
2019-05-20T15:01:26.928Z,98940.93
2019-05-20T15:03:54.316Z,98941.80
2019-05-20T15:06:21.535Z,98939.57
2019-05-20T15:08:48.806Z,98939.72
2019-05-20T15:11:16.136Z,98933.83
2019-05-20T15:13:43.427Z,98927.09
2019-05-20T15:16:10.712Z,98924.55
2019-05-20T15:18:38.070Z,98920.77
2019-05-20T15:21:05.353Z,98910.47
2019-05-20T15:23:32.740Z,98913.28
2019-05-20T15:26:00.030Z,98917.75
2019-05-20T15:28:27.278Z,98923.91
2019-05-20T15:30:54.506Z,98918.87
2019-05-20T15:33:21.782Z,98933.42
2019-05-20T15:35:49.075Z,98938.23
2019-05-20T15:38:16.352Z,98940.48
2019-05-20T15:40:43.795Z,98934.61
2019-05-20T15:43:11.343Z,98945.45
2019-05-20T15:45:38.904Z,98938.13
2019-05-20T15:48:06.141Z,98934.21
2019-05-20T15:50:33.405Z,98908.66
2019-05-20T15:53:01.811Z,98908.86
2019-05-20T15:55:29.165Z,98909.38
2019-05-20T15:57:56.455Z,98913.13
2019-05-20T16:00:23.863Z,98908.28
2019-05-20T16:02:51.143Z,98910.44
2019-05-20T16:05:18.509Z,98920.70
2019-05-20T16:07:46.157Z,98918.59
2019-05-20T16:10:13.507Z,98921.59
2019-05-20T16:12:41.024Z,98925.92
2019-05-20T16:15:08.704Z,98930.98
2019-05-20T16:17:37.511Z,98938.72
2019-05-20T16:20:07.172Z,98948.89
2019-05-20T16:22:34.520Z,98939.84
2019-05-20T16:25:02.169Z,98938.08
2019-05-20T16:27:32.859Z,98936.48
2019-05-20T16:30:06.887Z,98937.62
2019-05-20T16:32:37.964Z,98954.63
2019-05-20T16:35:05.690Z,98952.66
2019-05-20T16:37:35.790Z,98972.41
2019-05-20T16:40:04.561Z,98981.77
2019-05-20T16:42:34.715Z,98986.52
2019-05-20T16:45:02.080Z,99000.27
2019-05-20T16:47:32.342Z,98998.56
2019-05-20T16:50:00.753Z,98997.36
2019-05-20T16:52:29.658Z,99007.31
2019-05-20T16:54:58.117Z,99004.71
2019-05-20T16:57:25.674Z,99000.16
2019-05-20T16:59:53.095Z,99015.64
2019-05-20T17:02:23.479Z,99027.44
2019-05-20T17:04:51.186Z,99042.36
2019-05-20T17:07:19.255Z,99054.53
2019-05-20T17:09:47.620Z,99043.44
2019-05-20T17:12:16.046Z,99044.02
2019-05-20T17:14:43.296Z,99024.78
2019-05-20T17:17:10.561Z,99027.08
2019-05-20T17:19:37.851Z,99023.63
2019-05-20T17:22:05.985Z,99043.56
2019-05-20T17:24:33.271Z,99066.59
2019-05-20T17:27:00.548Z,99081.95
2019-05-20T17:29:27.824Z,99078.16
2019-05-20T17:31:55.169Z,99048.66
2019-05-20T17:34:22.571Z,99037.94
2019-05-20T17:36:49.858Z,99041.27
2019-05-20T17:39:17.252Z,99024.09
2019-05-20T17:41:46.932Z,99024.61
2019-05-20T17:44:15.187Z,99035.28
2019-05-20T17:46:43.514Z,99029.87
2019-05-20T17:49:10.873Z,99030.75
2019-05-20T17:51:38.147Z,99024.30
2019-05-20T17:54:05.406Z,99014.86
2019-05-20T17:56:36.123Z,99022.03
2019-05-20T17:59:03.601Z,99024.80
2019-05-20T18:01:31.136Z,99013.53
2019-05-20T18:03:58.541Z,99031.38
2019-05-20T18:06:26.140Z,99054.48
2019-05-20T18:08:57.069Z,99007.64
2019-05-20T18:11:24.302Z,98991.34
2019-05-20T18:13:51.543Z,99003.91
2019-05-20T18:16:18.752Z,99021.47
2019-05-20T18:18:46.060Z,99019.62
2019-05-20T18:21:13.349Z,99033.85
2019-05-20T18:23:40.601Z,99035.05
2019-05-20T18:26:07.892Z,99027.06
2019-05-20T18:28:35.167Z,99005.33
2019-05-20T18:31:02.477Z,99013.73
2019-05-20T18:33:29.782Z,99010.42
2019-05-20T18:35:57.398Z,99006.34
2019-05-20T18:38:24.662Z,98996.39
2019-05-20T18:40:51.993Z,98994.50
2019-05-20T18:43:19.289Z,98991.83
2019-05-20T18:45:46.670Z,98993.28
2019-05-20T18:48:13.934Z,98997.24
2019-05-20T18:50:41.174Z,99008.44
2019-05-20T18:53:08.433Z,99002.27
2019-05-20T18:55:35.690Z,98993.61
2019-05-20T18:58:03.041Z,98979.79
2019-05-20T19:00:30.393Z,98969.23
2019-05-20T19:02:57.744Z,98980.01
2019-05-20T19:05:25.036Z,98980.01
2019-05-20T19:07:52.466Z,98980.20
2019-05-20T19:10:21.115Z,98984.33
2019-05-20T19:12:48.482Z,98984.50
2019-05-20T19:15:16.023Z,98983.98
2019-05-20T19:17:43.348Z,98984.91
2019-05-20T19:20:10.689Z,98985.97
2019-05-20T19:22:38.058Z,98978.66
2019-05-20T19:25:06.849Z,98988.24
2019-05-20T19:27:34.712Z,98994.41
2019-05-20T19:30:02.223Z,98993.53
2019-05-20T19:32:29.890Z,98985.39
2019-05-20T19:34:57.461Z,98985.30
2019-05-20T19:37:24.779Z,98986.81
2019-05-20T19:42:11.944Z,98999.11
2019-05-20T19:44:40.743Z,98999.94
2019-05-20T19:47:08.198Z,99008.14
2019-05-20T19:49:35.572Z,99007.91
2019-05-20T19:52:02.989Z,99014.22
2019-05-20T19:54:30.356Z,99014.16
2019-05-20T19:56:59.994Z,99019.80
2019-05-20T19:59:27.344Z,98991.58
2019-05-20T20:01:54.754Z,99011.82
2019-05-20T20:04:22.795Z,99017.36
2019-05-20T20:06:50.189Z,99025.41
2019-05-20T20:09:17.509Z,99019.80
2019-05-20T20:11:44.899Z,99022.66
2019-05-20T20:14:12.159Z,99025.14
2019-05-20T20:16:41.049Z,99023.23
2019-05-20T20:19:08.388Z,99021.88
2019-05-20T20:21:35.671Z,99008.31
2019-05-20T20:24:02.958Z,99016.77
2019-05-20T20:28:44.703Z,99021.06
2019-05-20T20:31:12.030Z,99030.83
2019-05-20T20:33:40.453Z,99030.98
2019-05-20T20:36:07.792Z,99036.30
2019-05-20T20:38:35.485Z,99042.59
2019-05-20T20:41:02.881Z,99034.89
2019-05-20T20:43:32.199Z,99036.61
2019-05-20T20:45:59.494Z,99036.53
2019-05-20T20:48:27.883Z,99031.16
2019-05-20T20:50:55.186Z,99025.79
2019-05-20T20:53:22.434Z,99018.73
2019-05-20T20:55:49.689Z,99007.69
2019-05-20T20:58:16.908Z,99011.57
2019-05-20T21:00:44.194Z,99008.77
2019-05-20T21:03:11.462Z,99001.28
2019-05-20T21:05:38.769Z,99010.92
2019-05-20T21:08:05.986Z,99000.02
2019-05-20T21:10:33.246Z,99005.90
2019-05-20T21:13:01.603Z,99008.58
2019-05-20T21:15:28.965Z,99008.48
2019-05-20T21:17:56.246Z,99002.77
2019-05-20T21:20:23.659Z,99000.97
2019-05-20T21:22:52.029Z,99001.80
2019-05-20T21:25:19.435Z,99002.84
2019-05-20T21:27:46.721Z,99003.55
2019-05-20T21:30:14.046Z,99009.64
2019-05-20T21:32:41.334Z,99004.08
2019-05-20T21:35:08.570Z,99007.01
2019-05-20T21:37:36.006Z,99005.89
2019-05-20T21:40:03.347Z,99010.11
2019-05-20T21:42:30.693Z,99019.88
2019-05-20T21:44:58.034Z,99023.33
2019-05-20T21:47:25.301Z,99031.68
2019-05-20T21:49:52.620Z,99022.45
2019-05-20T21:52:19.858Z,99024.62
2019-05-20T21:54:47.171Z,99039.20
2019-05-20T21:57:14.432Z,99036.52
2019-05-20T21:59:41.802Z,99045.20
2019-05-20T22:04:29.795Z,99034.36
2019-05-20T22:06:57.035Z,99049.38
2019-05-20T22:09:24.280Z,99047.72
2019-05-20T22:14:09.286Z,99036.69
2019-05-20T22:16:37.007Z,99044.21
2019-05-20T22:19:04.280Z,99045.14
2019-05-20T22:21:38.568Z,99053.48
2019-05-20T22:24:06.679Z,99066.70
2019-05-20T22:26:33.991Z,99061.45
2019-05-20T22:29:01.243Z,99067.11
2019-05-20T22:31:28.542Z,99062.73
2019-05-20T22:33:55.877Z,99063.89
2019-05-20T22:38:40.335Z,99077.34
2019-05-20T22:41:07.605Z,99076.11
2019-05-20T22:43:34.875Z,99071.23
2019-05-20T22:46:02.118Z,99071.65
2019-05-20T22:48:29.442Z,99062.70
2019-05-20T22:50:56.753Z,99069.75
2019-05-20T22:53:24.015Z,99063.14
2019-05-20T22:55:51.308Z,99064.48
2019-05-20T22:58:18.769Z,99058.23
2019-05-20T23:00:49.335Z,99050.96
2019-05-20T23:03:17.399Z,99044.53
2019-05-20T23:05:45.217Z,99035.76
2019-05-20T23:08:13.330Z,99026.90
2019-05-20T23:10:40.715Z,99014.20
2019-05-20T23:13:08.058Z,99014.35
2019-05-20T23:15:35.371Z,99013.83
2019-05-20T23:18:02.613Z,99014.80
2019-05-20T23:20:29.909Z,99006.44
2019-05-20T23:22:57.179Z,98994.59
2019-05-20T23:25:24.535Z,98999.77
2019-05-20T23:27:51.928Z,98991.94
2019-05-20T23:30:19.276Z,98997.47
2019-05-20T23:32:46.714Z,98989.71
2019-05-20T23:35:14.099Z,98989.95
2019-05-20T23:37:41.612Z,98987.65
2019-05-20T23:40:10.050Z,98981.86
2019-05-20T23:42:37.378Z,98990.23
2019-05-20T23:45:05.057Z,98986.09
2019-05-20T23:47:32.436Z,98988.13
2019-05-20T23:49:59.800Z,98988.19
2019-05-20T23:52:27.184Z,98988.19
2019-05-20T23:54:54.510Z,98994.63
2019-05-20T23:57:21.972Z,98990.62
2019-05-20T23:59:49.398Z,98997.48
